createdAt,value
2019-06-27T00:00:55.561Z,0
2019-06-27T00:01:55.570Z,0
2019-06-27T00:02:55.488Z,0
2019-06-27T00:03:55.170Z,0
2019-06-27T00:04:55.130Z,0
2019-06-27T00:05:55.151Z,0
2019-06-27T00:06:55.181Z,0
2019-06-27T00:07:55.723Z,0
2019-06-27T00:08:55.494Z,0
2019-06-27T00:09:55.570Z,0
2019-06-27T00:10:55.593Z,0
2019-06-27T00:11:55.571Z,0
2019-06-27T00:12:55.344Z,0
2019-06-27T00:13:55.368Z,0
2019-06-27T00:14:55.660Z,0
2019-06-27T00:15:55.943Z,0
2019-06-27T00:16:55.453Z,0
2019-06-27T00:17:55.479Z,0
2019-06-27T00:18:55.761Z,0
2019-06-27T00:19:55.524Z,0
2019-06-27T00:20:55.837Z,0
2019-06-27T00:21:56.127Z,0
2019-06-27T00:22:55.867Z,0
2019-06-27T00:23:55.629Z,0
2019-06-27T00:24:55.389Z,0
2019-06-27T00:25:55.943Z,0
2019-06-27T00:27:04.481Z,0
2019-06-27T00:27:55.753Z,0
2019-06-27T00:28:55.507Z,0
2019-06-27T00:29:56.077Z,0
2019-06-27T00:30:56.348Z,0
2019-06-27T00:31:56.158Z,0
2019-06-27T00:32:56.126Z,0
2019-06-27T00:33:56.448Z,0
2019-06-27T00:34:55.924Z,0
2019-06-27T00:35:56.209Z,0
2019-06-27T00:36:55.974Z,0
2019-06-27T00:37:56.259Z,0
2019-06-27T00:38:56.286Z,0
2019-06-27T00:39:56.318Z,0
2019-06-27T00:40:56.087Z,0
2019-06-27T00:41:56.407Z,0
2019-06-27T00:42:56.421Z,0
2019-06-27T00:43:56.427Z,0
2019-06-27T00:44:56.444Z,0
2019-06-27T00:45:56.213Z,0
2019-06-27T00:46:56.625Z,0
2019-06-27T00:47:56.268Z,0
2019-06-27T00:48:56.555Z,0
2019-06-27T00:49:56.596Z,0
2019-06-27T00:50:56.888Z,0
2019-06-27T00:51:56.654Z,0
2019-06-27T00:52:56.919Z,0
2019-06-27T00:53:56.427Z,0
2019-06-27T00:54:56.192Z,0
2019-06-27T00:55:56.738Z,0
2019-06-27T00:57:09.607Z,0
2019-06-27T00:57:57.077Z,0
2019-06-27T00:58:56.813Z,0
2019-06-27T00:59:57.113Z,0
2019-06-27T01:00:56.873Z,0
2019-06-27T01:01:56.910Z,0
2019-06-27T01:02:56.673Z,0
2019-06-27T01:03:56.687Z,0
2019-06-27T01:04:57.306Z,0
2019-06-27T01:05:56.765Z,0
2019-06-27T01:06:57.025Z,0
2019-06-27T01:07:57.081Z,0
2019-06-27T01:08:56.820Z,0
2019-06-27T01:10:00.282Z,0
2019-06-27T01:10:56.874Z,0
2019-06-27T01:11:56.903Z,0
2019-06-27T01:12:57.547Z,0
2019-06-27T01:13:56.955Z,0
2019-06-27T01:14:57.558Z,0
2019-06-27T01:15:57.012Z,0
2019-06-27T01:16:57.042Z,0
2019-06-27T01:17:57.323Z,0
2019-06-27T01:18:56.817Z,0
2019-06-27T01:19:56.847Z,0
2019-06-27T01:20:57.398Z,0
2019-06-27T01:21:57.177Z,0
2019-06-27T01:22:57.183Z,0
2019-06-27T01:23:56.964Z,0
2019-06-27T01:24:57.506Z,0
2019-06-27T01:25:57.526Z,0
2019-06-27T01:26:57.305Z,0
2019-06-27T01:27:57.841Z,0
2019-06-27T01:28:57.610Z,0
2019-06-27T01:29:57.897Z,0
2019-06-27T01:30:57.397Z,0
2019-06-27T01:31:57.694Z,0
2019-06-27T01:32:57.189Z,0
2019-06-27T01:33:57.476Z,0
2019-06-27T01:34:57.765Z,0
2019-06-27T01:35:57.521Z,0
2019-06-27T01:36:57.642Z,0
2019-06-27T01:37:57.847Z,0
2019-06-27T01:38:57.862Z,0
2019-06-27T01:39:57.911Z,0
2019-06-27T01:40:57.945Z,0
2019-06-27T01:41:57.436Z,0
2019-06-27T01:42:58.230Z,0
2019-06-27T01:43:59.796Z,0
2019-06-27T01:44:58.052Z,0
2019-06-27T01:45:58.166Z,0
2019-06-27T01:46:58.344Z,0
2019-06-27T01:47:57.843Z,0
2019-06-27T01:48:57.861Z,0
2019-06-27T01:49:57.897Z,0
2019-06-27T01:50:58.189Z,0
2019-06-27T01:51:58.210Z,0
2019-06-27T01:52:58.249Z,0
2019-06-27T01:53:58.018Z,0
2019-06-27T01:54:58.023Z,0
2019-06-27T01:55:58.060Z,0
2019-06-27T01:56:58.345Z,0
2019-06-27T01:57:58.103Z,0
2019-06-27T01:58:58.392Z,0
2019-06-27T01:59:58.170Z,0
2019-06-27T02:00:58.446Z,0
2019-06-27T02:01:58.215Z,0
2019-06-27T02:02:57.965Z,0
2019-06-27T02:03:58.519Z,0
2019-06-27T02:04:58.553Z,0
2019-06-27T02:05:58.833Z,0
2019-06-27T02:06:58.601Z,0
2019-06-27T02:07:58.618Z,0
2019-06-27T02:08:58.545Z,0
2019-06-27T02:09:58.675Z,0
2019-06-27T02:10:58.727Z,0
2019-06-27T02:11:58.748Z,0
2019-06-27T02:12:58.489Z,0
2019-06-27T02:13:59.041Z,0
2019-06-27T02:14:59.107Z,0
2019-06-27T02:15:58.838Z,0
2019-06-27T02:16:58.853Z,0
2019-06-27T02:17:58.890Z,0
2019-06-27T02:18:58.646Z,0
2019-06-27T02:19:58.411Z,0
2019-06-27T02:20:58.962Z,0
2019-06-27T02:21:58.719Z,0
2019-06-27T02:22:58.878Z,0
2019-06-27T02:23:59.301Z,0
2019-06-27T02:24:58.538Z,0
2019-06-27T02:25:59.366Z,0
2019-06-27T02:26:59.111Z,0
2019-06-27T02:28:10.336Z,0
2019-06-27T02:28:59.164Z,0
2019-06-27T02:29:58.933Z,0
2019-06-27T02:30:59.233Z,0
2019-06-27T02:31:59.266Z,0
2019-06-27T02:32:59.548Z,0
2019-06-27T02:33:59.565Z,0
2019-06-27T02:34:58.808Z,0
2019-06-27T02:35:59.085Z,0
2019-06-27T02:36:59.640Z,0
2019-06-27T02:37:59.696Z,4
2019-06-27T02:38:59.710Z,4
2019-06-27T02:39:59.741Z,4
2019-06-27T02:41:03.520Z,0
2019-06-27T02:42:00.031Z,0
2019-06-27T02:42:59.566Z,4
2019-06-27T02:43:59.045Z,4
2019-06-27T02:44:59.694Z,4
2019-06-27T02:45:59.729Z,4
2019-06-27T02:46:59.449Z,4
2019-06-27T02:47:59.938Z,4
2019-06-27T02:48:59.693Z,8
2019-06-27T02:49:59.745Z,4
2019-06-27T02:50:59.996Z,8
2019-06-27T02:52:00.057Z,4
2019-06-27T02:52:59.791Z,8
2019-06-27T02:54:00.082Z,8
2019-06-27T02:54:59.420Z,8
2019-06-27T02:55:59.879Z,12
2019-06-27T02:56:59.635Z,12
2019-06-27T02:58:00.185Z,16
2019-06-27T02:59:00.250Z,16
2019-06-27T02:59:59.724Z,16
2019-06-27T03:01:00.019Z,20
2019-06-27T03:02:00.017Z,24
2019-06-27T03:03:00.074Z,24
2019-06-27T03:03:59.812Z,24
2019-06-27T03:05:00.118Z,24
2019-06-27T03:06:00.422Z,24
2019-06-27T03:07:00.434Z,32
2019-06-27T03:08:00.197Z,32
2019-06-27T03:09:00.204Z,36
2019-06-27T03:10:00.249Z,40
2019-06-27T03:11:00.260Z,40
2019-06-27T03:12:05.111Z,36
2019-06-27T03:13:00.568Z,40
2019-06-27T03:14:00.610Z,44
2019-06-27T03:15:00.358Z,48
2019-06-27T03:16:00.405Z,52
2019-06-27T03:17:00.750Z,52
2019-06-27T03:18:00.497Z,56
2019-06-27T03:19:00.241Z,56
2019-06-27T03:20:00.766Z,56
2019-06-27T03:21:00.813Z,64
2019-06-27T03:22:00.016Z,68
2019-06-27T03:23:00.563Z,68
2019-06-27T03:24:00.846Z,72
2019-06-27T03:25:00.641Z,76
2019-06-27T03:26:00.644Z,80
2019-06-27T03:27:00.667Z,88
2019-06-27T03:28:00.962Z,92
2019-06-27T03:29:01.539Z,96
2019-06-27T03:30:00.750Z,104
2019-06-27T03:31:00.841Z,112
2019-06-27T03:32:01.125Z,116
2019-06-27T03:33:00.661Z,120
2019-06-27T03:34:01.013Z,120
2019-06-27T03:35:01.174Z,124
2019-06-27T03:36:01.323Z,124
2019-06-27T03:37:01.187Z,128
2019-06-27T03:38:01.272Z,140
2019-06-27T03:39:01.234Z,160
2019-06-27T03:40:01.293Z,180
2019-06-27T03:41:00.778Z,184
2019-06-27T03:42:01.040Z,184
2019-06-27T03:43:01.083Z,192
2019-06-27T03:44:01.137Z,200
2019-06-27T03:45:01.332Z,212
2019-06-27T03:46:00.908Z,224
2019-06-27T03:47:01.464Z,228
2019-06-27T03:48:01.482Z,228
2019-06-27T03:49:00.975Z,252
2019-06-27T03:50:01.519Z,276
2019-06-27T03:51:03.428Z,280
2019-06-27T03:52:01.302Z,284
2019-06-27T03:53:01.596Z,284
2019-06-27T03:54:01.437Z,280
2019-06-27T03:55:00.858Z,308
2019-06-27T03:56:01.153Z,336
2019-06-27T03:57:01.463Z,328
2019-06-27T03:58:01.200Z,328
2019-06-27T03:59:19.269Z,344
2019-06-27T04:00:01.506Z,340
2019-06-27T04:01:01.560Z,352
2019-06-27T04:02:01.556Z,364
2019-06-27T04:03:01.843Z,372
2019-06-27T04:04:01.345Z,392
2019-06-27T04:05:01.651Z,420
2019-06-27T04:06:01.948Z,420
2019-06-27T04:07:02.050Z,404
2019-06-27T04:08:01.728Z,396
2019-06-27T04:09:01.735Z,400
2019-06-27T04:10:01.505Z,424
2019-06-27T04:11:02.075Z,428
2019-06-27T04:12:02.154Z,424
2019-06-27T04:13:01.847Z,420
2019-06-27T04:14:01.865Z,412
2019-06-27T04:15:01.638Z,420
2019-06-27T04:16:01.673Z,436
2019-06-27T04:17:01.973Z,452
2019-06-27T04:18:01.978Z,460
2019-06-27T04:19:01.990Z,456
2019-06-27T04:20:01.762Z,456
2019-06-27T04:21:02.037Z,464
2019-06-27T04:22:02.065Z,480
2019-06-27T04:23:02.388Z,500
2019-06-27T04:24:01.884Z,524
2019-06-27T04:25:02.408Z,548
2019-06-27T04:26:02.231Z,588
2019-06-27T04:27:02.207Z,636
2019-06-27T04:28:07.391Z,656
2019-06-27T04:29:01.994Z,668
2019-06-27T04:30:02.299Z,676
2019-06-27T04:31:02.328Z,708
2019-06-27T04:32:02.328Z,664
2019-06-27T04:33:02.647Z,780
2019-06-27T04:34:02.632Z,864
2019-06-27T04:35:02.176Z,1292
2019-06-27T04:36:02.455Z,1332
2019-06-27T04:37:02.456Z,1440
2019-06-27T04:38:02.213Z,1544
2019-06-27T04:39:02.518Z,1520
2019-06-27T04:40:02.619Z,1468
2019-06-27T04:41:02.551Z,1472
2019-06-27T04:42:02.592Z,1524
2019-06-27T04:43:07.740Z,1656
2019-06-27T04:44:02.367Z,1692
2019-06-27T04:45:02.954Z,1736
2019-06-27T04:46:02.694Z,1756
2019-06-27T04:47:02.718Z,1692
2019-06-27T04:48:02.756Z,1572
2019-06-27T04:49:03.081Z,1460
2019-06-27T04:50:02.546Z,1360
2019-06-27T04:51:03.078Z,1328
2019-06-27T04:52:02.847Z,1332
2019-06-27T04:53:02.879Z,1252
2019-06-27T04:54:02.888Z,1400
2019-06-27T04:55:08.332Z,1348
2019-06-27T04:56:02.980Z,1188
2019-06-27T04:57:02.720Z,1040
2019-06-27T04:58:03.030Z,1124
2019-06-27T04:59:03.292Z,1152
2019-06-27T05:00:03.060Z,1072
2019-06-27T05:01:03.493Z,1048
2019-06-27T05:02:03.362Z,1096
2019-06-27T05:03:03.119Z,1156
2019-06-27T05:04:03.420Z,1176
2019-06-27T05:05:03.170Z,1144
2019-06-27T05:06:03.461Z,1108
2019-06-27T05:07:03.230Z,1076
2019-06-27T05:08:03.547Z,1072
2019-06-27T05:09:03.563Z,1108
2019-06-27T05:10:03.580Z,1260
2019-06-27T05:11:03.122Z,1212
2019-06-27T05:12:03.099Z,1212
2019-06-27T05:13:03.423Z,1288
2019-06-27T05:14:02.880Z,1404
2019-06-27T05:15:03.174Z,1428
2019-06-27T05:16:03.463Z,1492
2019-06-27T05:17:03.496Z,1476
2019-06-27T05:18:03.545Z,1356
2019-06-27T05:19:03.527Z,1276
2019-06-27T05:20:07.596Z,1196
2019-06-27T05:21:03.839Z,1300
2019-06-27T05:22:03.340Z,1168
2019-06-27T05:23:03.651Z,1248
2019-06-27T05:24:04.038Z,1436
2019-06-27T05:25:03.426Z,1212
2019-06-27T05:26:04.091Z,1276
2019-06-27T05:27:03.740Z,1352
2019-06-27T05:28:03.764Z,1288
2019-06-27T05:29:03.543Z,1136
2019-06-27T05:30:16.450Z,1132
2019-06-27T05:31:03.943Z,1136
2019-06-27T05:32:03.638Z,1132
2019-06-27T05:33:03.899Z,1168
2019-06-27T05:34:03.653Z,1216
2019-06-27T05:35:03.423Z,1276
2019-06-27T05:36:07.322Z,1344
2019-06-27T05:37:04.293Z,1332
2019-06-27T05:38:04.329Z,1312
2019-06-27T05:39:04.065Z,1344
2019-06-27T05:40:04.083Z,1404
2019-06-27T05:41:04.357Z,1432
2019-06-27T05:42:03.861Z,1384
2019-06-27T05:43:04.412Z,1260
2019-06-27T05:44:03.907Z,1196
2019-06-27T05:45:03.978Z,1304
2019-06-27T05:46:03.958Z,1388
2019-06-27T05:47:04.249Z,1516
2019-06-27T05:48:04.273Z,1636
2019-06-27T05:49:04.045Z,1624
2019-06-27T05:50:04.739Z,1864
2019-06-27T05:51:04.704Z,2044
2019-06-27T05:52:04.202Z,3200
2019-06-27T05:53:04.147Z,3492
2019-06-27T05:54:03.916Z,3560
2019-06-27T05:55:04.899Z,3532
2019-06-27T05:56:04.987Z,3360
2019-06-27T05:57:04.513Z,3224
2019-06-27T05:58:04.534Z,3008
2019-06-27T05:59:04.863Z,2524
2019-06-27T06:00:04.637Z,2208
2019-06-27T06:01:04.619Z,1984
2019-06-27T06:02:04.928Z,1816
2019-06-27T06:03:04.683Z,1656
2019-06-27T06:04:04.688Z,1424
2019-06-27T06:05:04.806Z,1108
2019-06-27T06:06:04.478Z,904
2019-06-27T06:07:04.892Z,860
2019-06-27T06:08:05.172Z,824
2019-06-27T06:09:04.818Z,832
2019-06-27T06:10:04.874Z,888
2019-06-27T06:11:04.893Z,956
2019-06-27T06:12:04.765Z,1404
2019-06-27T06:13:04.949Z,1348
2019-06-27T06:14:05.054Z,1284
2019-06-27T06:15:04.972Z,1228
2019-06-27T06:16:08.413Z,1212
2019-06-27T06:17:05.121Z,1268
2019-06-27T06:18:05.050Z,1280
2019-06-27T06:19:04.809Z,1284
2019-06-27T06:20:04.838Z,1292
2019-06-27T06:21:05.149Z,1300
2019-06-27T06:22:05.414Z,1272
2019-06-27T06:23:05.452Z,1256
2019-06-27T06:24:04.940Z,1240
2019-06-27T06:25:05.740Z,1220
2019-06-27T06:26:05.521Z,1208
2019-06-27T06:27:05.327Z,1212
2019-06-27T06:28:05.317Z,1204
2019-06-27T06:29:05.601Z,1208
2019-06-27T06:30:05.379Z,1220
2019-06-27T06:31:05.389Z,1208
2019-06-27T06:32:05.688Z,1208
2019-06-27T06:33:05.457Z,1208
2019-06-27T06:34:05.545Z,1208
2019-06-27T06:35:05.573Z,1204
2019-06-27T06:36:05.255Z,1188
2019-06-27T06:37:07.977Z,1196
2019-06-27T06:38:05.565Z,1196
2019-06-27T06:39:05.589Z,1176
2019-06-27T06:40:05.357Z,1168
2019-06-27T06:41:05.902Z,1192
2019-06-27T06:42:05.701Z,1196
2019-06-27T06:43:07.690Z,1156
2019-06-27T06:44:05.202Z,1176
2019-06-27T06:45:05.852Z,1188
2019-06-27T06:46:06.048Z,1188
2019-06-27T06:47:06.181Z,1188
2019-06-27T06:48:05.881Z,1188
2019-06-27T06:49:05.886Z,1192
2019-06-27T06:50:05.912Z,1180
2019-06-27T06:51:05.655Z,1180
2019-06-27T06:52:05.734Z,1176
2019-06-27T06:53:06.239Z,1180
2019-06-27T06:54:06.234Z,1184
2019-06-27T06:55:05.862Z,1176
2019-06-27T06:56:06.305Z,1168
2019-06-27T06:57:06.125Z,1168
2019-06-27T06:58:06.386Z,1168
2019-06-27T06:59:06.382Z,1172
2019-06-27T07:00:06.409Z,1172
2019-06-27T07:01:09.365Z,1168
2019-06-27T07:02:06.250Z,1156
2019-06-27T07:03:06.327Z,1152
2019-06-27T07:04:06.609Z,1156
2019-06-27T07:05:06.471Z,1156
2019-06-27T07:06:06.318Z,1160
2019-06-27T07:07:06.594Z,1164
2019-06-27T07:08:06.083Z,1164
2019-06-27T07:09:06.111Z,1164
2019-06-27T07:10:06.704Z,1160
2019-06-27T07:11:06.167Z,1160
2019-06-27T07:12:06.746Z,1164
2019-06-27T07:13:06.804Z,1160
2019-06-27T07:14:06.506Z,1152
2019-06-27T07:15:06.853Z,1156
2019-06-27T07:16:06.552Z,1156
2019-06-27T07:17:06.655Z,1156
2019-06-27T07:18:06.610Z,1164
2019-06-27T07:19:06.901Z,1160
2019-06-27T07:20:06.890Z,1160
2019-06-27T07:21:06.957Z,1160
2019-06-27T07:22:06.221Z,1156
2019-06-27T07:23:07.493Z,1152
2019-06-27T07:24:07.022Z,1148
2019-06-27T07:25:07.097Z,1156
2019-06-27T07:26:06.861Z,1160
2019-06-27T07:27:07.126Z,1156
2019-06-27T07:28:07.169Z,1156
2019-06-27T07:29:07.069Z,1152
2019-06-27T07:30:06.657Z,1148
2019-06-27T07:31:21.862Z,1148
2019-06-27T07:32:06.980Z,1152
2019-06-27T07:33:10.020Z,1156
2019-06-27T07:34:06.766Z,1160
2019-06-27T07:35:07.048Z,1160
2019-06-27T07:36:07.417Z,1152
2019-06-27T07:37:07.360Z,1160
2019-06-27T07:38:06.859Z,1168
2019-06-27T07:39:07.447Z,1164
2019-06-27T07:40:07.485Z,1164
2019-06-27T07:41:07.489Z,1160
2019-06-27T07:42:06.963Z,1156
2019-06-27T07:43:07.006Z,1160
2019-06-27T07:44:07.589Z,1160
2019-06-27T07:45:07.311Z,1160
2019-06-27T07:46:20.732Z,1160
2019-06-27T07:47:07.357Z,1160
2019-06-27T07:48:07.383Z,1148
2019-06-27T07:49:06.881Z,1156
2019-06-27T07:50:07.243Z,1156
2019-06-27T07:51:07.202Z,1152
2019-06-27T07:52:07.554Z,1160
2019-06-27T07:53:07.535Z,1152
2019-06-27T07:54:07.784Z,1156
2019-06-27T07:55:07.315Z,1148
2019-06-27T07:56:07.582Z,1152
2019-06-27T07:57:07.881Z,1152
2019-06-27T07:58:07.648Z,1152
2019-06-27T07:59:07.662Z,1152
2019-06-27T08:00:07.820Z,1152
2019-06-27T08:01:07.979Z,1160
2019-06-27T08:02:07.481Z,1160
2019-06-27T08:03:07.760Z,1156
2019-06-27T08:04:07.817Z,1152
2019-06-27T08:05:07.858Z,1156
2019-06-27T08:06:07.887Z,1156
2019-06-27T08:07:07.874Z,1156
2019-06-27T08:08:08.379Z,1152
2019-06-27T08:09:08.386Z,1148
2019-06-27T08:10:08.281Z,1148
2019-06-27T08:11:07.984Z,1156
2019-06-27T08:12:07.735Z,1152
2019-06-27T08:13:07.776Z,1148
2019-06-27T08:14:08.322Z,1148
2019-06-27T08:15:08.158Z,1148
2019-06-27T08:16:08.366Z,1148
2019-06-27T08:17:08.137Z,1152
2019-06-27T08:18:08.197Z,1144
2019-06-27T08:19:08.208Z,1152
2019-06-27T08:20:08.024Z,1156
2019-06-27T08:21:08.553Z,1152
2019-06-27T08:22:08.526Z,1156
2019-06-27T08:23:08.035Z,1156
2019-06-27T08:24:08.104Z,1152
2019-06-27T08:25:08.825Z,1152
2019-06-27T08:26:08.378Z,1156
2019-06-27T08:27:08.687Z,1152
2019-06-27T08:28:08.427Z,1152
2019-06-27T08:29:08.531Z,1148
2019-06-27T08:30:12.651Z,1148
2019-06-27T08:31:08.496Z,1148
2019-06-27T08:32:08.814Z,1144
2019-06-27T08:33:08.556Z,1148
2019-06-27T08:34:08.826Z,1152
2019-06-27T08:35:08.789Z,1156
2019-06-27T08:36:08.629Z,1160
2019-06-27T08:37:08.910Z,1164
2019-06-27T08:38:08.960Z,1160
2019-06-27T08:39:08.703Z,1164
2019-06-27T08:40:08.494Z,1164
2019-06-27T08:41:08.504Z,1160
2019-06-27T08:42:08.829Z,1156
2019-06-27T08:43:08.792Z,1160
2019-06-27T08:44:09.084Z,1156
2019-06-27T08:45:08.596Z,1152
2019-06-27T08:46:09.157Z,1152
2019-06-27T08:47:08.906Z,1152
2019-06-27T08:48:09.197Z,1152
2019-06-27T08:49:08.951Z,1152
2019-06-27T08:50:09.268Z,1152
2019-06-27T08:51:09.024Z,1160
2019-06-27T08:52:08.769Z,1164
2019-06-27T08:53:09.314Z,1168
2019-06-27T08:54:09.343Z,1164
2019-06-27T08:55:09.371Z,1160
2019-06-27T08:56:08.867Z,1160
2019-06-27T08:57:09.167Z,1160
2019-06-27T08:58:09.547Z,1160
2019-06-27T08:59:08.730Z,1160
2019-06-27T09:00:09.744Z,1160
2019-06-27T09:01:09.573Z,1160
2019-06-27T09:02:16.427Z,1160
2019-06-27T09:03:09.316Z,1164
2019-06-27T09:04:09.426Z,1156
2019-06-27T09:05:09.106Z,1152
2019-06-27T09:06:09.196Z,1152
2019-06-27T09:07:09.714Z,1156
2019-06-27T09:08:09.778Z,1152
2019-06-27T09:09:08.982Z,1156
2019-06-27T09:10:09.500Z,1152
2019-06-27T09:11:09.546Z,1152
2019-06-27T09:12:09.281Z,1152
2019-06-27T09:13:09.882Z,1160
2019-06-27T09:14:09.357Z,1160
2019-06-27T09:15:09.642Z,1160
2019-06-27T09:16:09.405Z,1156
2019-06-27T09:17:09.683Z,1156
2019-06-27T09:18:09.438Z,1156
2019-06-27T09:19:09.737Z,1152
2019-06-27T09:20:10.045Z,1156
2019-06-27T09:21:09.784Z,1156
2019-06-27T09:22:09.808Z,1156
2019-06-27T09:23:09.852Z,1160
2019-06-27T09:24:10.136Z,1160
2019-06-27T09:25:09.634Z,1164
2019-06-27T09:26:10.224Z,1164
2019-06-27T09:27:10.223Z,1160
2019-06-27T09:28:10.001Z,1160
2019-06-27T09:29:10.007Z,1160
2019-06-27T09:30:10.313Z,1160
2019-06-27T09:31:10.340Z,1160
2019-06-27T09:32:26.652Z,1152
2019-06-27T09:33:10.369Z,1152
2019-06-27T09:34:09.988Z,1152
2019-06-27T09:35:10.143Z,1148
2019-06-27T09:36:10.428Z,1152
2019-06-27T09:37:09.946Z,1148
2019-06-27T09:38:10.494Z,1148
2019-06-27T09:39:10.004Z,1148
2019-06-27T09:40:10.011Z,1152
2019-06-27T09:41:10.303Z,1160
2019-06-27T09:42:10.606Z,1160
2019-06-27T09:43:10.614Z,1160
2019-06-27T09:44:10.393Z,1164
2019-06-27T09:45:10.823Z,1172
2019-06-27T09:46:10.168Z,1176
2019-06-27T09:47:10.923Z,1168
2019-06-27T09:48:10.493Z,1168
2019-06-27T09:49:10.553Z,1164
2019-06-27T09:50:10.012Z,1164
2019-06-27T09:51:10.566Z,1164
2019-06-27T09:52:10.325Z,1164
2019-06-27T09:53:10.619Z,1164
2019-06-27T09:54:10.651Z,1164
2019-06-27T09:55:10.924Z,1160
2019-06-27T09:56:10.959Z,1160
2019-06-27T09:57:10.729Z,1164
2019-06-27T09:58:11.041Z,1156
2019-06-27T09:59:10.521Z,1152
2019-06-27T10:00:11.067Z,1152
2019-06-27T10:01:13.163Z,1152
2019-06-27T10:02:10.588Z,1148
2019-06-27T10:03:10.874Z,1152
2019-06-27T10:04:10.925Z,1156
2019-06-27T10:05:10.932Z,1160
2019-06-27T10:06:10.956Z,1164
2019-06-27T10:07:10.732Z,1172
2019-06-27T10:08:11.002Z,1176
2019-06-27T10:09:11.032Z,1180
2019-06-27T10:10:10.792Z,1184
2019-06-27T10:11:11.081Z,1184
2019-06-27T10:12:11.146Z,1188
2019-06-27T10:13:11.136Z,1192
2019-06-27T10:14:11.217Z,1188
2019-06-27T10:15:11.503Z,1188
2019-06-27T10:16:10.960Z,1188
2019-06-27T10:17:11.282Z,1184
2019-06-27T10:18:11.054Z,1184
2019-06-27T10:19:11.342Z,1184
2019-06-27T10:20:11.329Z,1184
2019-06-27T10:21:11.617Z,1188
2019-06-27T10:22:11.374Z,1192
2019-06-27T10:23:11.412Z,1192
2019-06-27T10:24:11.234Z,1192
2019-06-27T10:25:11.859Z,1188
2019-06-27T10:26:11.221Z,1188
2019-06-27T10:27:11.564Z,1188
2019-06-27T10:28:11.798Z,1188
2019-06-27T10:29:11.824Z,1188
2019-06-27T10:30:11.845Z,1196
2019-06-27T10:31:11.875Z,1204
2019-06-27T10:32:11.419Z,1212
2019-06-27T10:33:11.942Z,1212
2019-06-27T10:34:11.838Z,1212
2019-06-27T10:35:11.486Z,1216
2019-06-27T10:36:11.890Z,1220
2019-06-27T10:37:11.784Z,1220
2019-06-27T10:38:11.571Z,1224
2019-06-27T10:39:11.608Z,1228
2019-06-27T10:40:11.614Z,1224
2019-06-27T10:41:11.871Z,1228
2019-06-27T10:42:11.915Z,1236
2019-06-27T10:43:11.806Z,1240
2019-06-27T10:44:12.216Z,1240
2019-06-27T10:45:11.570Z,1248
2019-06-27T10:46:12.019Z,1244
2019-06-27T10:47:11.780Z,1244
2019-06-27T10:48:12.078Z,1244
2019-06-27T10:49:12.104Z,1240
2019-06-27T10:50:12.114Z,1236
2019-06-27T10:51:12.143Z,1236
2019-06-27T10:52:12.483Z,1236
2019-06-27T10:53:11.944Z,1244
2019-06-27T10:54:12.229Z,1252
2019-06-27T10:55:12.525Z,1256
2019-06-27T10:56:12.554Z,1272
2019-06-27T10:57:12.570Z,1272
2019-06-27T10:58:12.342Z,1268
2019-06-27T10:59:12.803Z,1272
2019-06-27T11:00:12.721Z,1276
2019-06-27T11:01:12.154Z,1280
2019-06-27T11:02:12.695Z,1284
2019-06-27T11:03:22.794Z,1296
2019-06-27T11:04:12.743Z,1296
2019-06-27T11:05:12.355Z,1304
2019-06-27T11:06:12.547Z,1304
2019-06-27T11:07:12.305Z,1304
2019-06-27T11:08:12.613Z,1304
2019-06-27T11:09:14.388Z,1304
2019-06-27T11:10:12.926Z,1304
2019-06-27T11:11:12.932Z,1296
2019-06-27T11:12:12.701Z,1296
2019-06-27T11:13:12.728Z,1296
2019-06-27T11:14:13.035Z,1288
2019-06-27T11:15:12.856Z,1280
2019-06-27T11:16:12.616Z,1284
2019-06-27T11:17:12.839Z,1292
2019-06-27T11:18:12.610Z,1296
2019-06-27T11:19:12.892Z,1300
2019-06-27T11:20:15.248Z,1300
2019-06-27T11:21:16.354Z,1308
2019-06-27T11:22:13.231Z,1320
2019-06-27T11:23:13.128Z,1324
2019-06-27T11:24:12.762Z,1328
2019-06-27T11:25:12.837Z,1320
2019-06-27T11:26:16.704Z,1328
2019-06-27T11:27:13.111Z,1336
2019-06-27T11:28:14.954Z,1336
2019-06-27T11:29:13.176Z,1336
2019-06-27T11:30:13.974Z,1336
2019-06-27T11:31:12.950Z,1336
2019-06-27T11:32:13.590Z,1340
2019-06-27T11:33:13.286Z,1344
2019-06-27T11:34:13.275Z,1336
2019-06-27T11:35:13.309Z,1336
2019-06-27T11:36:13.607Z,1348
2019-06-27T11:37:13.140Z,1364
2019-06-27T11:38:13.752Z,1372
2019-06-27T11:39:13.571Z,1388
2019-06-27T11:40:17.145Z,1412
2019-06-27T11:41:13.214Z,1432
2019-06-27T11:42:13.534Z,1440
2019-06-27T11:43:13.521Z,1436
2019-06-27T11:44:13.557Z,1444
2019-06-27T11:45:13.602Z,1452
2019-06-27T11:46:15.732Z,1460
2019-06-27T11:47:13.648Z,1464
2019-06-27T11:48:13.415Z,1464
2019-06-27T11:49:13.712Z,1464
2019-06-27T11:50:14.543Z,1460
2019-06-27T11:51:13.756Z,1464
2019-06-27T11:52:13.804Z,1472
2019-06-27T11:53:13.535Z,1496
2019-06-27T11:54:14.080Z,1508
2019-06-27T11:55:13.844Z,1508
2019-06-27T11:56:13.884Z,1500
2019-06-27T11:57:14.155Z,1496
2019-06-27T11:58:14.205Z,1508
2019-06-27T11:59:13.773Z,1532
2019-06-27T12:00:13.729Z,1544
2019-06-27T12:01:14.020Z,1552
2019-06-27T12:02:13.846Z,1556
2019-06-27T12:03:14.394Z,1564
2019-06-27T12:04:14.095Z,1560
2019-06-27T12:05:14.370Z,1560
2019-06-27T12:06:13.873Z,1560
2019-06-27T12:07:14.215Z,1584
2019-06-27T12:08:17.954Z,1612
2019-06-27T12:09:14.303Z,1620
2019-06-27T12:10:14.243Z,1624
2019-06-27T12:11:14.264Z,1628
2019-06-27T12:12:14.288Z,1640
2019-06-27T12:13:14.613Z,1660
2019-06-27T12:14:14.650Z,1672
2019-06-27T12:15:14.641Z,1676
2019-06-27T12:16:14.707Z,1680
2019-06-27T12:17:14.428Z,1696
2019-06-27T12:18:14.495Z,1712
2019-06-27T12:19:14.791Z,1712
2019-06-27T12:20:14.780Z,1720
2019-06-27T12:21:14.274Z,1724
2019-06-27T12:22:14.034Z,1724
2019-06-27T12:23:14.074Z,1744
2019-06-27T12:24:14.914Z,1772
2019-06-27T12:25:14.369Z,1776
2019-06-27T12:26:14.411Z,1780
2019-06-27T12:27:14.445Z,1780
2019-06-27T12:28:14.978Z,1788
2019-06-27T12:29:15.006Z,1800
2019-06-27T12:30:14.843Z,1804
2019-06-27T12:31:27.269Z,1804
2019-06-27T12:32:14.848Z,1796
2019-06-27T12:33:14.846Z,1804
2019-06-27T12:34:15.248Z,1784
2019-06-27T12:35:15.159Z,1788
2019-06-27T12:36:15.187Z,1808
2019-06-27T12:37:14.949Z,1812
2019-06-27T12:38:14.718Z,1824
2019-06-27T12:39:15.270Z,1852
2019-06-27T12:40:15.134Z,1892
2019-06-27T12:41:14.829Z,1932
2019-06-27T12:42:28.333Z,1936
2019-06-27T12:43:18.929Z,1940
2019-06-27T12:44:14.902Z,1968
2019-06-27T12:45:15.164Z,1984
2019-06-27T12:46:14.930Z,1992
2019-06-27T12:47:15.493Z,2000
2019-06-27T12:48:15.246Z,1996
2019-06-27T12:49:15.049Z,1996
2019-06-27T12:50:14.817Z,1996
2019-06-27T12:51:15.322Z,1996
2019-06-27T12:52:15.654Z,2000
2019-06-27T12:53:15.644Z,2016
2019-06-27T12:54:15.479Z,2032
2019-06-27T12:55:15.173Z,2056
2019-06-27T12:56:15.725Z,2068
2019-06-27T12:57:15.487Z,2064
2019-06-27T12:58:15.510Z,2056
2019-06-27T12:59:15.288Z,2056
2019-06-27T13:00:16.421Z,2084
2019-06-27T13:01:15.735Z,2100
2019-06-27T13:02:18.602Z,2112
2019-06-27T13:03:15.653Z,2136
2019-06-27T13:04:30.010Z,2160
2019-06-27T13:05:15.709Z,2176
2019-06-27T13:06:15.992Z,2192
2019-06-27T13:07:15.506Z,2216
2019-06-27T13:08:15.266Z,2240
2019-06-27T13:09:15.814Z,2240
2019-06-27T13:10:16.102Z,2244
2019-06-27T13:11:15.977Z,2252
2019-06-27T13:12:15.635Z,2280
2019-06-27T13:13:15.922Z,2308
2019-06-27T13:14:16.224Z,2308
2019-06-27T13:15:16.421Z,2308
2019-06-27T13:16:15.999Z,2320
2019-06-27T13:17:15.768Z,2336
2019-06-27T13:18:16.062Z,2340
2019-06-27T13:19:16.092Z,2360
2019-06-27T13:20:16.142Z,2388
2019-06-27T13:21:16.462Z,2404
2019-06-27T13:22:16.169Z,2408
2019-06-27T13:23:16.192Z,2444
2019-06-27T13:24:16.488Z,2484
2019-06-27T13:25:15.998Z,2472
2019-06-27T13:26:16.346Z,2484
2019-06-27T13:27:16.355Z,2500
2019-06-27T13:28:16.331Z,2508
2019-06-27T13:29:16.086Z,2524
2019-06-27T13:30:16.383Z,2540
2019-06-27T13:31:16.145Z,2556
2019-06-27T13:32:16.715Z,2580
2019-06-27T13:33:16.472Z,2572
2019-06-27T13:34:16.490Z,2580
2019-06-27T13:35:16.551Z,2616
2019-06-27T13:36:16.827Z,2632
2019-06-27T13:37:16.847Z,2656
2019-06-27T13:38:16.850Z,2676
2019-06-27T13:39:16.372Z,2716
2019-06-27T13:40:16.396Z,2744
2019-06-27T13:41:16.675Z,2784